createdAt,value
2023-01-27T00:00:39.203Z,20.88
2023-01-27T00:03:06.605Z,21.58
2023-01-27T00:05:33.343Z,19.67
2023-01-27T00:08:00.130Z,19.95
2023-01-27T00:10:27.190Z,19.35
2023-01-27T00:13:12.521Z,20.20
2023-01-27T00:15:39.413Z,20.55
2023-01-27T00:18:06.516Z,19.25
2023-01-27T00:20:51.859Z,18.35
2023-01-27T00:23:39.867Z,18.42
2023-01-27T00:26:08.338Z,19.90
2023-01-27T00:28:39.256Z,19.23
2023-01-27T00:31:08.405Z,18.42
2023-01-27T00:33:35.171Z,18.92
2023-01-27T00:36:07.161Z,19.27
2023-01-27T00:38:40.842Z,19.05
2023-01-27T00:41:20.091Z,20.13
2023-01-27T00:43:50.861Z,21.30
2023-01-27T00:46:18.310Z,20.95
2023-01-27T00:48:45.410Z,19.85
2023-01-27T00:51:13.393Z,18.20
2023-01-27T00:53:40.709Z,17.23
2023-01-27T00:56:07.917Z,16.98
2023-01-27T00:58:34.702Z,15.05
2023-01-27T01:01:03.847Z,14.63
2023-01-27T01:03:31.693Z,14.52
2023-01-27T01:05:59.504Z,14.65
2023-01-27T01:08:26.712Z,14.52
2023-01-27T01:10:53.733Z,14.63
2023-01-27T01:13:21.680Z,15.90
2023-01-27T01:15:48.645Z,14.15
2023-01-27T01:18:15.671Z,14.07
2023-01-27T01:20:43.933Z,15.00
2023-01-27T01:23:11.654Z,14.88
2023-01-27T01:25:38.646Z,13.40
2023-01-27T01:28:05.881Z,13.45
2023-01-27T01:30:34.541Z,13.07
2023-01-27T01:33:01.521Z,13.27
2023-01-27T01:35:28.395Z,13.75
2023-01-27T01:37:55.217Z,15.15
2023-01-27T01:40:24.691Z,15.02
2023-01-27T01:42:56.524Z,14.95
2023-01-27T01:45:45.567Z,14.27
2023-01-27T01:48:19.154Z,12.85
2023-01-27T01:50:57.804Z,14.15
2023-01-27T01:53:29.649Z,14.07
2023-01-27T01:55:57.989Z,15.18
2023-01-27T01:58:24.788Z,14.65
2023-01-27T02:00:51.543Z,14.73
2023-01-27T02:03:18.265Z,15.93
2023-01-27T02:05:45.626Z,14.63
2023-01-27T02:08:15.957Z,15.75
2023-01-27T02:10:42.747Z,15.02
2023-01-27T02:13:09.595Z,15.85
2023-01-27T02:15:36.403Z,15.43
2023-01-27T02:18:03.176Z,17.23
2023-01-27T02:20:40.490Z,16.63
2023-01-27T02:23:40.314Z,17.20
2023-01-27T02:26:11.490Z,16.48
2023-01-27T02:28:38.236Z,15.32
2023-01-27T02:31:05.223Z,17.40
2023-01-27T02:33:32.073Z,16.77
2023-01-27T02:36:13.136Z,16.75
2023-01-27T02:38:46.397Z,16.42
2023-01-27T02:41:18.477Z,15.70
2023-01-27T02:43:45.226Z,15.25
2023-01-27T02:46:12.003Z,16.45
2023-01-27T02:48:38.708Z,15.05
2023-01-27T02:51:05.668Z,16.38
2023-01-27T02:53:32.473Z,16.95
2023-01-27T02:55:59.172Z,14.85
2023-01-27T02:58:25.893Z,14.60
2023-01-27T03:00:53.905Z,14.02
2023-01-27T03:03:20.584Z,14.73
2023-01-27T03:05:47.717Z,14.30
2023-01-27T03:08:14.374Z,14.73
2023-01-27T03:10:41.157Z,14.13
2023-01-27T03:13:07.930Z,15.52
2023-01-27T03:15:55.189Z,15.63
2023-01-27T03:18:22.681Z,15.55
2023-01-27T03:20:50.014Z,16.13
2023-01-27T03:23:18.274Z,17.33
2023-01-27T03:25:46.856Z,16.33
2023-01-27T03:28:14.536Z,17.17
2023-01-27T03:30:41.714Z,16.95
2023-01-27T03:33:08.785Z,17.35
2023-01-27T03:35:39.240Z,17.17
2023-01-27T03:38:26.075Z,15.90
2023-01-27T03:41:11.362Z,17.05
2023-01-27T03:43:56.515Z,15.77
2023-01-27T03:46:23.273Z,16.88
2023-01-27T03:48:51.707Z,18.40
2023-01-27T03:51:19.384Z,18.75
2023-01-27T03:53:46.451Z,17.42
2023-01-27T03:56:13.441Z,17.25
2023-01-27T03:58:41.737Z,16.98
2023-01-27T04:01:14.806Z,17.83
2023-01-27T04:06:48.041Z,17.85
2023-01-27T04:09:22.709Z,18.92
2023-01-27T04:11:55.192Z,18.73
2023-01-27T04:14:27.163Z,19.23
2023-01-27T04:16:55.482Z,17.58
2023-01-27T04:19:22.177Z,18.77
2023-01-27T04:21:49.239Z,19.45
2023-01-27T04:24:25.468Z,18.83
2023-01-27T04:27:03.564Z,17.60
2023-01-27T04:29:32.172Z,18.98
2023-01-27T04:31:59.005Z,18.15
2023-01-27T04:34:26.563Z,20.52
2023-01-27T04:36:53.968Z,18.27
2023-01-27T04:39:20.893Z,19.58
2023-01-27T04:41:49.155Z,20.58
2023-01-27T04:44:16.176Z,21.50
2023-01-27T04:46:42.943Z,17.98
2023-01-27T04:49:11.222Z,19.38
2023-01-27T04:51:38.386Z,19.48
2023-01-27T04:54:05.695Z,19.33
2023-01-27T04:56:40.376Z,19.15
2023-01-27T04:59:10.329Z,18.65
2023-01-27T05:01:37.053Z,20.13
2023-01-27T05:04:04.163Z,20.33
2023-01-27T05:06:31.416Z,20.08
2023-01-27T05:08:58.281Z,18.83
2023-01-27T05:11:24.988Z,19.15
2023-01-27T05:13:51.791Z,19.55
2023-01-27T05:16:21.052Z,18.77
2023-01-27T05:18:49.110Z,17.70
2023-01-27T05:21:18.376Z,18.60
2023-01-27T05:23:45.325Z,17.88
2023-01-27T05:26:13.214Z,18.90
2023-01-27T05:28:42.779Z,17.67
2023-01-27T05:31:18.745Z,18.23
2023-01-27T05:33:45.961Z,16.45
2023-01-27T05:36:15.305Z,16.50
2023-01-27T05:38:42.443Z,15.95
2023-01-27T05:41:10.569Z,17.63
2023-01-27T05:43:40.672Z,17.88
2023-01-27T05:46:18.529Z,17.27
2023-01-27T05:48:47.628Z,14.98
2023-01-27T05:51:16.511Z,16.58
2023-01-27T05:53:44.725Z,15.82
2023-01-27T05:56:13.800Z,18.13
2023-01-27T05:58:40.852Z,15.80
2023-01-27T06:01:16.399Z,15.68
2023-01-27T06:03:43.722Z,16.23
2023-01-27T06:06:11.458Z,16.75
2023-01-27T06:08:38.748Z,16.60
2023-01-27T06:11:06.131Z,16.83
2023-01-27T06:13:35.832Z,15.75
2023-01-27T06:16:03.913Z,18.30
2023-01-27T06:18:30.733Z,17.20
2023-01-27T06:20:59.136Z,17.58
2023-01-27T06:23:27.541Z,19.08
2023-01-27T06:25:54.679Z,19.40
2023-01-27T06:28:29.234Z,16.40
2023-01-27T06:30:57.153Z,16.58
2023-01-27T06:33:23.954Z,17.05
2023-01-27T06:35:50.707Z,17.83
2023-01-27T06:38:17.472Z,16.95
2023-01-27T06:40:44.434Z,16.50
2023-01-27T06:43:14.268Z,16.23
2023-01-27T06:45:41.412Z,15.60
2023-01-27T06:48:08.835Z,18.65
2023-01-27T06:50:36.381Z,15.90
2023-01-27T06:53:07.105Z,15.80
2023-01-27T06:55:34.710Z,17.70
2023-01-27T06:58:02.653Z,16.60
2023-01-27T07:00:29.951Z,16.58
2023-01-27T07:02:56.949Z,16.40
2023-01-27T07:05:23.895Z,16.45
2023-01-27T07:07:50.597Z,16.65
2023-01-27T07:10:17.452Z,14.93
2023-01-27T07:12:48.382Z,14.70
2023-01-27T07:15:15.222Z,14.02
2023-01-27T07:17:42.057Z,15.05
2023-01-27T07:20:11.967Z,15.27
2023-01-27T07:22:39.198Z,14.82
2023-01-27T07:25:07.012Z,15.10
2023-01-27T07:27:33.646Z,13.15
2023-01-27T07:30:00.447Z,13.45
2023-01-27T07:32:28.448Z,13.57
2023-01-27T07:34:55.280Z,12.30
2023-01-27T07:37:22.012Z,12.43
2023-01-27T07:39:48.880Z,12.57
2023-01-27T07:42:15.626Z,11.93
2023-01-27T07:44:42.335Z,11.68
2023-01-27T07:47:09.156Z,11.25
2023-01-27T07:49:35.942Z,10.85
2023-01-27T07:52:03.159Z,11.40
2023-01-27T07:54:29.908Z,12.85
2023-01-27T07:56:56.633Z,11.57
2023-01-27T07:59:23.363Z,10.70
2023-01-27T08:01:50.035Z,10.43
2023-01-27T08:04:17.307Z,10.13
2023-01-27T08:06:44.002Z,10.82
2023-01-27T08:09:10.689Z,10.00
2023-01-27T08:11:37.507Z,9.82
2023-01-27T08:14:04.325Z,9.68
2023-01-27T08:16:31.069Z,11.52
2023-01-27T08:18:58.790Z,11.15
2023-01-27T08:21:25.696Z,11.32
2023-01-27T08:23:54.448Z,10.77
2023-01-27T08:26:21.229Z,11.00
2023-01-27T08:28:47.901Z,10.50
2023-01-27T08:31:16.076Z,11.75
2023-01-27T08:33:44.503Z,11.15
2023-01-27T08:36:16.416Z,11.57
2023-01-27T08:38:44.052Z,10.48
2023-01-27T08:41:16.760Z,10.48
2023-01-27T08:43:43.650Z,10.77
2023-01-27T08:46:10.789Z,11.75
2023-01-27T08:48:37.979Z,11.35
2023-01-27T08:51:05.974Z,12.00
2023-01-27T08:53:32.870Z,12.13
2023-01-27T08:56:04.059Z,11.88
2023-01-27T08:58:31.509Z,11.55
2023-01-27T09:01:01.880Z,11.98
2023-01-27T09:03:29.828Z,12.73
2023-01-27T09:05:56.765Z,13.27
2023-01-27T09:08:23.944Z,12.52
2023-01-27T09:10:50.842Z,13.13
2023-01-27T09:13:18.289Z,12.95
2023-01-27T09:15:46.340Z,12.68
2023-01-27T09:18:13.079Z,14.73
2023-01-27T09:20:40.219Z,13.45
2023-01-27T09:23:06.961Z,14.38
2023-01-27T09:25:33.743Z,13.82
2023-01-27T09:28:00.945Z,15.02
2023-01-27T09:30:28.436Z,13.80
2023-01-27T09:33:00.254Z,15.18
2023-01-27T09:35:30.247Z,13.43
2023-01-27T09:37:58.119Z,13.77
2023-01-27T09:41:04.212Z,14.23
2023-01-27T09:44:08.307Z,13.88
2023-01-27T09:46:58.861Z,14.18
2023-01-27T09:49:57.476Z,14.15
2023-01-27T09:52:45.426Z,13.80
2023-01-27T09:55:28.798Z,12.90
2023-01-27T09:58:34.456Z,14.55
2023-01-27T10:01:29.638Z,14.43
2023-01-27T10:04:00.304Z,13.52
2023-01-27T10:06:53.323Z,13.15
2023-01-27T10:09:38.679Z,12.35
2023-01-27T10:12:20.488Z,12.30
2023-01-27T10:15:02.495Z,12.25
2023-01-27T10:18:01.211Z,12.35
2023-01-27T10:20:33.869Z,12.98
2023-01-27T10:23:19.223Z,11.85
2023-01-27T10:26:04.177Z,10.70
2023-01-27T10:28:31.313Z,10.18
2023-01-27T10:31:03.574Z,9.65
2023-01-27T10:33:41.015Z,10.52
2023-01-27T10:36:26.518Z,8.38
2023-01-27T10:39:10.549Z,8.60
2023-01-27T10:42:14.425Z,8.38
2023-01-27T10:47:19.831Z,8.45
2023-01-27T10:49:51.763Z,8.50
2023-01-27T10:52:24.855Z,7.43
2023-01-27T10:57:26.126Z,7.47
2023-01-27T11:00:46.585Z,7.80
2023-01-27T11:03:21.716Z,8.48
2023-01-27T11:05:51.753Z,7.80
2023-01-27T11:08:27.480Z,7.88
2023-01-27T11:11:14.132Z,8.50
2023-01-27T11:13:40.911Z,8.43
2023-01-27T11:16:20.859Z,7.93
2023-01-27T11:18:55.245Z,7.97
2023-01-27T11:21:23.086Z,8.77
2023-01-27T11:23:53.653Z,8.00
2023-01-27T11:26:26.987Z,8.52
2023-01-27T11:29:18.191Z,8.00
2023-01-27T11:32:18.639Z,8.60
2023-01-27T11:35:04.148Z,7.82
2023-01-27T11:37:41.655Z,8.27
2023-01-27T11:40:16.006Z,9.30
2023-01-27T11:42:42.972Z,8.25
2023-01-27T11:45:17.475Z,8.93
2023-01-27T11:47:44.428Z,8.48
2023-01-27T11:50:20.783Z,8.68
2023-01-27T11:53:18.659Z,9.25
2023-01-27T11:55:58.002Z,9.23
2023-01-27T11:58:32.674Z,10.00
2023-01-27T12:01:19.515Z,9.40
2023-01-27T12:04:04.830Z,10.13
2023-01-27T12:06:34.160Z,10.55
2023-01-27T12:09:00.879Z,10.05
2023-01-27T12:11:32.083Z,10.07
2023-01-27T12:14:00.598Z,11.30
2023-01-27T12:16:45.105Z,10.43
2023-01-27T12:19:48.812Z,12.00
2023-01-27T12:22:27.845Z,11.43
2023-01-27T12:24:57.826Z,11.00
2023-01-27T12:27:26.516Z,10.75
2023-01-27T12:30:00.875Z,11.68
2023-01-27T12:32:39.341Z,10.63
2023-01-27T12:35:06.673Z,12.02
2023-01-27T12:37:37.971Z,12.23
2023-01-27T12:40:07.920Z,11.52
2023-01-27T12:42:38.502Z,12.48
2023-01-27T12:45:24.999Z,12.15
2023-01-27T12:48:07.919Z,11.18
2023-01-27T12:50:38.605Z,10.90
2023-01-27T12:53:15.265Z,10.63
2023-01-27T12:56:07.893Z,11.82
2023-01-27T12:58:55.837Z,11.88
2023-01-27T13:01:31.761Z,11.73
2023-01-27T13:04:01.903Z,12.05
2023-01-27T13:06:43.407Z,12.20
2023-01-27T13:09:38.257Z,12.20
2023-01-27T13:12:16.751Z,11.90
2023-01-27T13:14:43.643Z,12.32
2023-01-27T13:17:48.512Z,13.55
2023-01-27T13:20:18.161Z,11.57
2023-01-27T13:22:51.543Z,12.63
2023-01-27T13:25:23.649Z,12.98
2023-01-27T13:27:51.181Z,11.65
2023-01-27T13:30:30.603Z,12.48
2023-01-27T13:33:01.195Z,13.60
2023-01-27T13:35:53.706Z,13.55
2023-01-27T13:38:30.759Z,12.52
2023-01-27T13:40:57.770Z,14.20
2023-01-27T13:43:33.835Z,14.50
2023-01-27T13:46:32.950Z,13.18
2023-01-27T13:49:04.150Z,13.57
2023-01-27T13:51:31.391Z,14.10
2023-01-27T13:54:00.424Z,12.35
2023-01-27T13:56:58.231Z,14.07
2023-01-27T13:59:28.107Z,14.30
2023-01-27T14:01:57.252Z,12.52
2023-01-27T14:04:43.136Z,11.75
2023-01-27T14:07:32.833Z,11.30
2023-01-27T14:10:10.903Z,12.35
2023-01-27T14:12:51.105Z,11.95
2023-01-27T14:15:52.201Z,12.02
2023-01-27T14:18:46.981Z,12.02
2023-01-27T14:21:45.246Z,11.60
2023-01-27T14:24:35.265Z,11.95
2023-01-27T14:27:05.235Z,11.75
2023-01-27T14:29:41.061Z,10.50
2023-01-27T14:32:15.915Z,12.40
2023-01-27T14:35:06.037Z,11.95
2023-01-27T14:37:48.651Z,12.18
2023-01-27T14:40:21.292Z,12.95
2023-01-27T14:43:15.897Z,12.70
2023-01-27T14:45:48.555Z,12.57
2023-01-27T14:48:43.569Z,12.10
2023-01-27T14:51:12.205Z,11.82
2023-01-27T14:53:51.045Z,12.30
2023-01-27T14:56:37.976Z,12.13
2023-01-27T14:59:16.785Z,11.45
2023-01-27T15:02:12.776Z,11.48
2023-01-27T15:05:03.664Z,11.23
2023-01-27T15:07:55.141Z,11.25
2023-01-27T15:10:26.285Z,11.80
2023-01-27T15:13:05.056Z,10.98
2023-01-27T15:16:11.676Z,11.40
2023-01-27T15:18:45.168Z,13.35
2023-01-27T15:21:17.780Z,12.23
2023-01-27T15:23:57.067Z,12.77
2023-01-27T15:26:26.354Z,11.55
2023-01-27T15:28:53.292Z,10.70
2023-01-27T15:31:23.354Z,10.40
2023-01-27T15:34:03.439Z,11.73
2023-01-27T15:36:34.467Z,11.23
2023-01-27T15:39:10.331Z,10.23
2023-01-27T15:41:37.755Z,10.57
2023-01-27T15:44:41.467Z,10.90
2023-01-27T15:47:26.350Z,10.77
2023-01-27T15:50:02.256Z,9.95
2023-01-27T15:52:31.153Z,9.50
2023-01-27T15:54:59.139Z,10.18
2023-01-27T15:57:31.890Z,9.50
2023-01-27T16:00:17.306Z,9.57
2023-01-27T16:02:47.178Z,9.90
2023-01-27T16:05:27.522Z,10.70
2023-01-27T16:08:01.276Z,9.63
2023-01-27T16:10:30.374Z,9.73
2023-01-27T16:13:26.654Z,9.18
2023-01-27T16:16:18.354Z,10.00
2023-01-27T16:18:54.016Z,9.50
2023-01-27T16:21:27.015Z,9.63
2023-01-27T16:23:57.809Z,8.50
2023-01-27T16:26:24.476Z,9.98
2023-01-27T16:28:52.774Z,10.30
2023-01-27T16:31:25.262Z,9.32
2023-01-27T16:33:55.923Z,9.70
2023-01-27T16:36:31.181Z,9.43
2023-01-27T16:38:59.838Z,8.88
2023-01-27T16:41:36.401Z,8.82
2023-01-27T16:44:05.688Z,9.05
2023-01-27T16:46:41.912Z,9.27
2023-01-27T16:49:24.828Z,9.43
2023-01-27T16:52:05.650Z,8.93
2023-01-27T16:54:42.878Z,10.00
2023-01-27T16:57:31.252Z,8.65
2023-01-27T17:00:32.141Z,9.05
2023-01-27T17:03:01.262Z,9.00
2023-01-27T17:05:28.469Z,9.20
2023-01-27T17:08:19.670Z,8.68
2023-01-27T17:10:54.965Z,10.00
2023-01-27T17:13:57.417Z,10.25
2023-01-27T17:16:32.777Z,10.88
2023-01-27T17:19:20.049Z,10.45
2023-01-27T17:21:52.430Z,10.25
2023-01-27T17:24:29.613Z,11.70
2023-01-27T17:27:20.122Z,9.77
2023-01-27T17:29:47.250Z,10.52
2023-01-27T17:32:19.684Z,11.13
2023-01-27T17:34:46.432Z,11.85
2023-01-27T17:37:17.321Z,10.68
2023-01-27T17:39:45.909Z,10.27
2023-01-27T17:42:19.526Z,9.75
2023-01-27T17:44:47.741Z,11.02
2023-01-27T17:47:16.212Z,12.73
2023-01-27T17:49:44.239Z,11.63
2023-01-27T17:52:12.248Z,11.65
2023-01-27T17:54:39.407Z,12.60
2023-01-27T17:57:15.145Z,10.68
2023-01-27T17:59:46.452Z,12.48
2023-01-27T18:02:28.035Z,25.25
2023-01-27T18:04:54.891Z,18.52
2023-01-27T18:07:21.710Z,14.23
2023-01-27T18:09:53.550Z,14.50
2023-01-27T18:12:31.157Z,13.80
2023-01-27T18:14:58.178Z,14.07
2023-01-27T18:17:27.839Z,13.10
2023-01-27T18:19:56.295Z,10.88
2023-01-27T18:22:27.981Z,10.32
2023-01-27T18:24:56.869Z,10.32
2023-01-27T18:27:43.924Z,10.75
2023-01-27T18:30:16.218Z,11.23
2023-01-27T18:32:45.419Z,9.93
2023-01-27T18:35:32.853Z,9.43
2023-01-27T18:38:01.707Z,9.60
2023-01-27T18:40:34.085Z,10.43
2023-01-27T18:43:01.115Z,9.85
2023-01-27T18:45:27.911Z,9.73
2023-01-27T18:47:54.972Z,11.15
2023-01-27T18:50:26.317Z,10.63
2023-01-27T18:52:53.282Z,10.07
2023-01-27T18:55:26.825Z,10.85
2023-01-27T18:57:57.600Z,10.57
2023-01-27T19:00:38.369Z,10.40
2023-01-27T19:03:07.694Z,11.18
2023-01-27T19:05:35.657Z,12.68
2023-01-27T19:08:02.875Z,12.15
2023-01-27T19:10:31.964Z,11.63
2023-01-27T19:13:00.075Z,11.88
2023-01-27T19:15:34.749Z,11.90
2023-01-27T19:18:02.845Z,11.90
2023-01-27T19:20:30.850Z,11.93
2023-01-27T19:22:58.304Z,10.68
2023-01-27T19:25:26.274Z,11.52
2023-01-27T19:27:55.164Z,10.95
2023-01-27T19:30:32.625Z,10.82
2023-01-27T19:32:59.407Z,9.85
2023-01-27T19:35:27.628Z,11.60
2023-01-27T19:37:55.831Z,12.80
2023-01-27T19:40:23.515Z,10.85
2023-01-27T19:42:50.278Z,10.95
2023-01-27T19:45:17.897Z,9.57
2023-01-27T19:47:47.111Z,10.18
2023-01-27T19:50:23.321Z,9.35
2023-01-27T19:52:50.447Z,11.35
2023-01-27T19:55:18.411Z,11.98
2023-01-27T19:57:45.333Z,10.57
2023-01-27T20:00:30.271Z,11.02
2023-01-27T20:02:57.434Z,9.50
2023-01-27T20:05:25.597Z,9.43
2023-01-27T20:07:53.858Z,10.80
2023-01-27T20:10:23.312Z,10.27
2023-01-27T20:13:03.226Z,9.65
2023-01-27T20:15:35.165Z,11.93
2023-01-27T20:18:01.838Z,11.85
2023-01-27T20:20:28.596Z,10.93
2023-01-27T20:22:55.775Z,10.20
2023-01-27T20:25:24.596Z,9.10
2023-01-27T20:27:55.923Z,9.30
2023-01-27T20:30:27.821Z,10.10
2023-01-27T20:32:56.309Z,9.73
2023-01-27T20:35:23.512Z,10.15
2023-01-27T20:37:51.397Z,8.57
2023-01-27T20:40:21.133Z,9.38
2023-01-27T20:42:48.116Z,8.90
2023-01-27T20:45:15.392Z,9.18
2023-01-27T20:47:42.679Z,8.75
2023-01-27T20:50:10.233Z,8.82
2023-01-27T20:52:37.680Z,8.75
2023-01-27T20:55:05.469Z,9.00
2023-01-27T20:57:32.256Z,8.70
2023-01-27T20:59:59.066Z,8.07
2023-01-27T21:02:26.974Z,8.23
2023-01-27T21:04:54.021Z,8.45
2023-01-27T21:07:21.981Z,8.02
2023-01-27T21:09:48.814Z,8.80
2023-01-27T21:12:15.510Z,8.18
2023-01-27T21:14:42.297Z,7.88
2023-01-27T21:17:08.975Z,7.63
2023-01-27T21:19:35.641Z,7.82
2023-01-27T21:22:02.465Z,7.22
2023-01-27T21:24:29.194Z,6.82
2023-01-27T21:26:57.263Z,7.00
2023-01-27T21:29:23.957Z,7.28
2023-01-27T21:31:50.655Z,7.65
2023-01-27T21:34:17.455Z,6.72
2023-01-27T21:36:44.431Z,6.53
2023-01-27T21:39:11.067Z,6.82
2023-01-27T21:41:52.843Z,7.00
2023-01-27T21:44:42.081Z,6.38
2023-01-27T21:47:10.734Z,6.95
2023-01-27T21:49:57.380Z,7.28
2023-01-27T21:52:25.492Z,6.88
2023-01-27T21:54:52.520Z,6.97
2023-01-27T21:57:19.350Z,7.03
2023-01-27T21:59:46.043Z,6.93
2023-01-27T22:02:16.141Z,7.43
2023-01-27T22:04:43.568Z,7.28
2023-01-27T22:07:14.564Z,7.57
2023-01-27T22:09:41.258Z,7.22
2023-01-27T22:12:10.937Z,6.53
2023-01-27T22:14:37.682Z,7.60
2023-01-27T22:17:04.478Z,6.82
2023-01-27T22:19:31.290Z,6.57
2023-01-27T22:21:58.005Z,6.85
2023-01-27T22:24:24.727Z,6.80
2023-01-27T22:26:51.693Z,6.18
2023-01-27T22:29:18.410Z,6.50
2023-01-27T22:31:45.141Z,6.45
2023-01-27T22:34:11.888Z,5.60
2023-01-27T22:36:38.643Z,7.40
2023-01-27T22:39:05.567Z,7.45
2023-01-27T22:41:32.525Z,8.93
2023-01-27T22:44:04.608Z,8.63
2023-01-27T22:46:39.542Z,11.32
2023-01-27T22:49:07.340Z,12.98
2023-01-27T22:51:34.225Z,11.88
2023-01-27T22:54:00.982Z,10.90
2023-01-27T22:56:27.910Z,9.93
2023-01-27T22:58:54.687Z,9.95
2023-01-27T23:01:21.541Z,7.35
2023-01-27T23:03:48.308Z,8.00
2023-01-27T23:06:15.151Z,8.07
2023-01-27T23:08:42.085Z,8.77
2023-01-27T23:11:09.111Z,6.90
2023-01-27T23:13:35.913Z,7.63
2023-01-27T23:16:02.734Z,6.22
2023-01-27T23:18:29.418Z,6.32
2023-01-27T23:21:01.401Z,6.43
2023-01-27T23:23:28.061Z,6.85
2023-01-27T23:25:54.802Z,6.85
2023-01-27T23:28:22.229Z,6.53
2023-01-27T23:30:49.972Z,6.22
2023-01-27T23:33:17.887Z,6.68
2023-01-27T23:35:44.954Z,6.50
2023-01-27T23:38:26.307Z,6.35
2023-01-27T23:41:11.330Z,6.35
2023-01-27T23:43:38.299Z,7.10
2023-01-27T23:46:05.276Z,6.95
2023-01-27T23:48:31.994Z,6.82
2023-01-27T23:50:58.782Z,6.65
2023-01-27T23:53:25.540Z,5.38
2023-01-27T23:55:58.455Z,6.10
2023-01-27T23:58:26.300Z,5.82
